Time;durP1;ratioP1;P1;durP2;ratioP2;P2;SDS_P1;SDS_P2;PMS_P1;PMS_P2;Temp;Humidity;BMP_temperature;BMP_pressure;BME280_temperature;BME280_humidity;BME280_pressure;Samples;Min_cycle;Max_cycle;Signal;HPM_P1;HPM_P2
2022/07/26 00:00:21;;;;;;;5.53;2.55;;;;;;;23.16;47.57;101187.38;5050798;28;20057;-69
2022/07/26 00:02:51;;;;;;;6.60;2.40;;;;;;;23.14;47.38;101182.94;5050715;28;20064;-69
2022/07/26 00:05:17;;;;;;;4.70;2.00;;;;;;;23.14;47.79;101185.66;5050603;28;20033;-68
2022/07/26 00:07:44;;;;;;;7.88;2.30;;;;;;;23.13;47.51;101192.19;5049388;28;20084;-69
2022/07/26 00:10:12;;;;;;;9.50;2.50;;;;;;;23.12;47.90;101185.00;5050409;28;20139;-69
2022/07/26 00:13:03;;;;;;;7.53;3.15;;;;;;;23.10;48.11;101189.81;5050494;28;20490;-69
2022/07/26 00:15:30;;;;;;;5.00;2.03;;;;;;;23.10;47.88;101180.72;5050600;28;20061;-69
2022/07/26 00:17:57;;;;;;;6.97;2.90;;;;;;;23.09;47.54;101189.97;5052103;28;20033;-68
2022/07/26 00:20:24;;;;;;;7.22;1.92;;;;;;;23.02;47.80;101184.34;5054398;28;20065;-69
2022/07/26 00:22:58;;;;;;;6.63;2.35;;;;;;;23.00;48.22;101188.31;5054251;28;20197;-69
2022/07/26 00:25:24;;;;;;;4.65;2.08;;;;;;;22.99;47.84;101192.06;5053625;28;20060;-69
2022/07/26 00:27:51;;;;;;;6.80;1.77;;;;;;;23.00;48.07;101194.63;5054183;28;20456;-69
2022/07/26 00:30:18;;;;;;;7.13;2.42;;;;;;;23.03;48.20;101196.16;5054237;28;20479;-69
2022/07/26 00:32:49;;;;;;;6.07;1.90;;;;;;;23.02;48.16;101188.97;5053991;28;20135;-70
2022/07/26 00:35:15;;;;;;;5.18;2.00;;;;;;;22.98;48.23;101193.13;5054080;28;20072;-69
2022/07/26 00:37:42;;;;;;;4.47;2.20;;;;;;;22.96;48.31;101192.44;5053936;28;20080;-70
2022/07/26 00:40:10;;;;;;;5.85;2.40;;;;;;;22.95;48.46;101198.94;5054043;28;20041;-70
2022/07/26 00:42:36;;;;;;;7.93;2.60;;;;;;;22.93;48.26;101198.28;5053792;28;20064;-70
2022/07/26 00:45:05;;;;;;;7.57;2.30;;;;;;;22.93;48.29;101192.81;5053870;28;20088;-70
2022/07/26 00:47:33;;;;;;;8.63;2.38;;;;;;;22.94;48.72;101194.50;5053880;28;20041;-70
2022/07/26 00:50:00;;;;;;;7.22;2.50;;;;;;;22.93;48.63;101187.31;5054038;28;20045;-70
2022/07/26 00:52:26;;;;;;;4.60;2.40;;;;;;;22.93;48.70;101187.31;5053409;28;20041;-71
2022/07/26 00:54:54;;;;;;;4.45;2.10;;;;;;;22.95;48.75;101194.31;5053985;28;20489;-70
2022/07/26 00:57:22;;;;;;;5.45;2.40;;;;;;;22.97;48.92;101192.25;5053748;28;20063;-71
2022/07/26 00:59:49;;;;;;;5.47;2.50;;;;;;;23.00;49.00;101197.38;5053641;28;20041;-71
2022/07/26 01:02:17;;;;;;;6.45;2.22;;;;;;;23.01;48.51;101200.97;5053509;28;20414;-71
2022/07/26 01:04:44;;;;;;;10.13;2.05;;;;;;;23.00;48.84;101200.13;5053469;28;20072;-70
2022/07/26 01:07:12;;;;;;;6.10;2.17;;;;;;;22.99;48.91;101192.06;5053291;28;20456;-70
2022/07/26 01:09:41;;;;;;;6.30;2.05;;;;;;;22.99;48.67;101187.44;5053551;28;20041;-70
2022/07/26 01:12:09;;;;;;;8.27;2.42;;;;;;;23.01;48.77;101187.28;5052875;28;20037;-69
2022/07/26 01:14:37;;;;;;;5.70;1.98;;;;;;;23.02;48.86;101192.56;5053376;28;20049;-70
2022/07/26 01:17:03;;;;;;;4.97;2.17;;;;;;;23.03;48.98;101187.94;5053223;28;20081;-70
2022/07/26 01:19:30;;;;;;;4.90;2.28;;;;;;;23.01;48.97;101195.50;5053298;28;20075;-69
2022/07/26 01:21:57;;;;;;;8.70;2.95;;;;;;;23.01;49.10;101190.00;5053210;28;20052;-69
2022/07/26 01:24:24;;;;;;;8.07;2.30;;;;;;;23.02;48.74;101187.09;5053545;28;20033;-70
2022/07/26 01:26:50;;;;;;;6.28;2.25;;;;;;;23.03;49.04;101182.47;5053215;28;20128;-69
2022/07/26 01:29:17;;;;;;;8.85;2.35;;;;;;;23.04;48.97;101184.19;5051273;28;20052;-70
2022/07/26 01:31:44;;;;;;;7.85;2.35;;;;;;;23.03;49.11;101176.97;5053143;28;20581;-69
2022/07/26 01:34:10;;;;;;;4.72;2.22;;;;;;;23.00;49.18;101182.81;5052929;28;20490;-70
2022/07/26 01:36:37;;;;;;;8.85;2.38;;;;;;;23.01;48.85;101182.66;5051845;28;20139;-70
2022/07/26 01:39:05;;;;;;;4.75;1.90;;;;;;;23.00;49.12;101180.09;5052841;28;20396;-69
2022/07/26 01:41:32;;;;;;;7.45;2.40;;;;;;;23.00;49.34;101180.09;5052716;28;20041;-70
2022/07/26 01:44:05;;;;;;;5.90;1.90;;;;;;;22.99;49.26;101192.94;5052608;28;20088;-71
2022/07/26 01:46:34;;;;;;;5.15;2.28;;;;;;;22.97;48.99;101189.53;5052572;28;20047;-70
2022/07/26 01:49:01;;;;;;;5.78;2.00;;;;;;;22.93;49.07;101193.66;5052945;28;20463;-69
2022/07/26 01:51:28;;;;;;;5.38;2.15;;;;;;;22.90;49.38;101191.28;5052671;28;20072;-69
2022/07/26 01:54:00;;;;;;;7.32;2.20;;;;;;;22.88;49.35;101192.50;5052568;28;20045;-69
2022/07/26 01:56:27;;;;;;;8.23;2.58;;;;;;;22.86;49.51;101192.69;5052572;28;20053;-70
2022/07/26 01:58:54;;;;;;;7.03;2.80;;;;;;;22.87;49.69;101199.00;5052568;28;20128;-70
2022/07/26 02:01:21;;;;;;;6.53;2.10;;;;;;;22.86;49.34;101197.31;5052286;28;20568;-69
2022/07/26 02:04:57;;;;;;;6.80;2.50;;;;;;;22.85;49.50;101201.06;5052594;28;20526;-69
2022/07/26 02:06:55;;;;;;;5.22;2.20;;;;;;;22.83;49.48;101210.31;5052260;28;20045;-70
2022/07/26 02:09:22;;;;;;;8.70;3.00;;;;;;;22.80;49.74;101207.09;5052133;28;20503;-70
2022/07/26 02:11:51;;;;;;;8.45;2.50;;;;;;;22.78;49.78;101209.97;5052101;28;20458;-69
2022/07/26 02:14:20;;;;;;;5.45;2.20;;;;;;;22.78;49.84;101217.34;5051987;28;20067;-70
2022/07/26 02:16:58;;;;;;;9.27;2.40;;;;;;;22.77;50.27;101215.63;5051683;28;20098;-70
2022/07/26 02:19:27;;;;;;;5.95;3.00;;;;;;;22.78;50.45;101215.44;5050961;28;20044;-71
2022/07/26 02:21:55;;;;;;;4.82;2.42;;;;;;;22.80;50.52;101213.41;5052024;28;20131;-71
2022/07/26 02:24:22;;;;;;;7.18;3.30;;;;;;;22.81;50.85;101209.66;5052250;28;20124;-70
2022/07/26 02:26:49;;;;;;;7.70;2.88;;;;;;;22.80;51.31;101213.41;5051619;28;20053;-70
2022/07/26 02:29:15;;;;;;;6.70;2.83;;;;;;;22.80;51.44;101216.16;5051920;28;20076;-70
2022/07/26 02:31:42;;;;;;;5.32;2.85;;;;;;;22.82;51.63;101218.72;5051791;28;20049;-70
2022/07/26 02:34:16;;;;;;;9.38;3.15;;;;;;;22.85;51.44;101225.72;5051958;28;20049;-70
2022/07/26 02:36:43;;;;;;;9.02;2.97;;;;;;;22.85;51.68;101215.63;5051972;28;20119;-71
2022/07/26 02:39:10;;;;;;;9.10;3.75;;;;;;;22.87;51.85;101218.19;5051749;28;20103;-71
2022/07/26 02:41:36;;;;;;;6.57;2.90;;;;;;;22.87;52.32;101215.44;5032696;28;20502;-71
2022/07/26 02:44:08;;;;;;;8.00;2.70;;;;;;;22.89;52.01;101219.69;5033770;28;20542;-70
2022/07/26 02:46:36;;;;;;;7.00;3.05;;;;;;;22.89;52.22;101225.19;5051762;28;20462;-70
2022/07/26 02:49:03;;;;;;;8.35;2.88;;;;;;;22.91;52.43;101228.59;5051464;28;20100;-70
2022/07/26 02:51:30;;;;;;;8.32;3.00;;;;;;;22.91;52.48;101223.13;5051540;28;20045;-70
2022/07/26 02:54:00;;;;;;;7.63;3.30;;;;;;;22.92;52.54;101227.56;5050095;28;20057;-69
2022/07/26 02:56:27;;;;;;;7.13;3.42;;;;;;;22.92;52.69;101227.56;5051382;28;20083;-70
2022/07/26 02:58:54;;;;;;;10.10;3.60;;;;;;;22.91;52.64;101223.13;5050282;28;20250;-70
2022/07/26 03:01:21;;;;;;;9.73;3.20;;;;;;;22.91;52.77;101225.00;5051447;28;20116;-70
2022/07/26 03:03:47;;;;;;;8.38;3.55;;;;;;;22.89;52.51;101230.66;5051213;28;20418;-70
2022/07/26 03:06:17;;;;;;;11.18;3.50;;;;;;;22.86;52.51;101232.91;5051359;28;20045;-70
2022/07/26 03:08:45;;;;;;;5.75;2.92;;;;;;;22.85;52.67;101225.72;5049864;28;20044;-70
2022/07/26 03:11:12;;;;;;;11.90;3.60;;;;;;;22.82;52.80;101230.53;5051257;28;20048;-71
2022/07/26 03:13:38;;;;;;;8.20;3.17;;;;;;;22.80;52.59;101234.47;5051051;28;20041;-70
2022/07/26 03:16:08;;;;;;;7.53;3.35;;;;;;;22.78;52.64;101239.25;5051178;28;20517;-70
2022/07/26 03:18:35;;;;;;;5.95;2.72;;;;;;;22.77;52.79;101237.53;5051201;28;20049;-70
2022/07/26 03:21:02;;;;;;;7.20;3.30;;;;;;;22.76;52.64;101247.63;5049941;28;20045;-69
2022/07/26 03:23:33;;;;;;;7.80;3.38;;;;;;;22.74;53.11;101249.69;5050621;28;20128;-70
2022/07/26 03:26:01;;;;;;;9.40;3.50;;;;;;;22.74;53.03;101248.84;5050936;28;20059;-69
2022/07/26 03:28:30;;;;;;;11.82;3.63;;;;;;;22.74;52.97;101246.09;5051152;28;20091;-70
2022/07/26 03:30:56;;;;;;;12.93;3.50;;;;;;;22.71;53.12;101252.78;5051021;28;20051;-70
2022/07/26 03:33:24;;;;;;;10.10;3.47;;;;;;;22.70;53.13;101259.31;5051062;28;20049;-70
2022/07/26 03:35:51;;;;;;;7.80;3.30;;;;;;;22.69;53.25;101262.22;5049986;28;20045;-69
2022/07/26 03:38:18;;;;;;;11.35;4.35;;;;;;;22.68;53.27;101263.25;5050719;28;20048;-69
2022/07/26 03:40:45;;;;;;;9.55;4.20;;;;;;;22.64;53.18;101254.53;5051002;28;20037;-69
2022/07/26 03:43:15;;;;;;;9.10;4.07;;;;;;;22.61;53.51;101265.84;5050915;28;20049;-70
2022/07/26 03:45:46;;;;;;;10.32;4.20;;;;;;;22.59;53.46;101259.69;5050886;28;20388;-70
2022/07/26 03:48:13;;;;;;;9.43;4.10;;;;;;;22.57;53.29;101264.50;5050932;28;20037;-69
2022/07/26 03:50:39;;;;;;;13.50;4.25;;;;;;;22.56;53.17;101262.78;5050688;28;20529;-69
2022/07/26 03:53:07;;;;;;;10.15;3.80;;;;;;;22.55;53.43;101262.97;5052538;28;20060;-69
2022/07/26 03:58:19;;;;;;;9.48;3.80;;;;;;;22.54;53.58;101272.22;5054972;28;20045;-69
2022/07/26 04:00:46;;;;;;;10.05;4.47;;;;;;;22.52;53.33;101283.34;5054728;28;20039;-69
2022/07/26 04:03:14;;;;;;;10.35;4.50;;;;;;;22.51;53.61;101273.41;5054622;28;20040;-70
2022/07/26 04:05:40;;;;;;;9.05;4.50;;;;;;;22.48;53.41;101273.75;5054714;28;20494;-70
2022/07/26 04:08:15;;;;;;;10.32;4.97;;;;;;;22.46;53.91;101275.81;5054639;28;20402;-70
2022/07/26 04:10:46;;;;;;;13.88;5.10;;;;;;;22.43;53.97;101282.50;5054139;28;20491;-70
2022/07/26 04:13:18;;;;;;;11.80;4.38;;;;;;;22.39;53.88;101272.94;5054570;28;20398;-70
2022/07/26 04:15:45;;;;;;;8.68;4.75;;;;;;;22.37;53.83;101269.53;5054175;28;20053;-70
2022/07/26 04:18:13;;;;;;;16.88;5.43;;;;;;;22.38;53.94;101284.06;5054473;28;20501;-69
2022/07/26 04:20:40;;;;;;;9.68;4.47;;;;;;;22.36;54.17;101277.91;5034607;28;20093;-70
2022/07/26 04:23:10;;;;;;;13.18;4.80;;;;;;;22.35;54.48;101284.41;5034517;28;20515;-70
2022/07/26 04:25:38;;;;;;;14.63;5.18;;;;;;;22.35;53.98;101282.53;5034326;28;20048;-70
2022/07/26 04:28:06;;;;;;;11.60;4.82;;;;;;;22.36;54.56;101280.66;5053137;28;20079;-70
2022/07/26 04:30:33;;;;;;;9.95;4.82;;;;;;;22.36;54.56;101280.66;5054221;28;20491;-71
2022/07/26 04:33:02;;;;;;;12.13;5.10;;;;;;;22.37;54.48;101285.09;5054261;28;20041;-70
2022/07/26 04:35:29;;;;;;;11.73;5.63;;;;;;;22.39;54.85;101289.34;5054131;28;20041;-70
2022/07/26 04:37:55;;;;;;;14.77;5.45;;;;;;;22.41;54.71;101292.78;5054152;28;20048;-70
2022/07/26 04:40:22;;;;;;;14.35;4.80;;;;;;;22.43;54.95;101300.81;5054117;28;20045;-70
2022/07/26 04:42:51;;;;;;;11.65;4.68;;;;;;;22.45;54.65;101299.59;5053569;28;20040;-70
2022/07/26 04:45:18;;;;;;;13.30;5.85;;;;;;;22.46;55.13;101289.50;5052163;28;20512;-70
2022/07/26 04:47:49;;;;;;;10.80;5.18;;;;;;;22.48;54.84;101295.66;5053926;28;20550;-70
2022/07/26 04:50:21;;;;;;;12.73;4.88;;;;;;;22.50;55.06;101301.81;5053799;28;20045;-70
2022/07/26 04:52:53;;;;;;;11.57;4.82;;;;;;;22.54;55.00;101297.69;5053930;28;20367;-70
2022/07/26 04:55:21;;;;;;;13.98;5.05;;;;;;;22.58;55.15;101296.31;5052282;28;20052;-70
2022/07/26 04:57:48;;;;;;;12.57;5.40;;;;;;;22.62;55.25;101303.16;5053762;28;20056;-71
2022/07/26 05:00:20;;;;;;;10.55;5.15;;;;;;;22.65;55.05;101302.78;5053370;28;20175;-70
2022/07/26 05:02:54;;;;;;;13.95;5.25;;;;;;;22.68;55.16;101312.53;5053644;28;20099;-70
2022/07/26 05:05:23;;;;;;;15.75;5.75;;;;;;;22.71;55.05;101306.72;5052605;28;20525;-70
2022/07/26 05:07:52;;;;;;;11.77;4.72;;;;;;;22.73;55.35;101313.72;5053343;28;20063;-70
2022/07/26 05:10:20;;;;;;;11.65;5.45;;;;;;;22.77;55.16;101308.72;5053563;28;20060;-70
2022/07/26 05:12:51;;;;;;;13.68;5.47;;;;;;;22.78;55.48;101308.56;5052385;28;20044;-71
2022/07/26 05:15:18;;;;;;;13.90;5.38;;;;;;;22.82;55.34;101320.03;5052942;28;20055;-70
2022/07/26 05:17:45;;;;;;;11.70;5.38;;;;;;;22.85;55.53;101321.56;5053473;28;20053;-70
2022/07/26 05:20:15;;;;;;;10.98;5.90;;;;;;;22.87;55.41;101320.38;5053776;28;20040;-71
2022/07/26 05:23:07;;;;;;;14.23;5.70;;;;;;;22.88;55.61;101323.97;5053098;28;20531;-71
2022/07/26 05:25:33;;;;;;;16.38;6.47;;;;;;;22.90;55.21;101330.09;5053151;28;20513;-70
2022/07/26 05:28:00;;;;;;;11.27;5.18;;;;;;;22.90;55.13;101322.75;5053358;28;20037;-71
2022/07/26 05:30:27;;;;;;;14.57;6.13;;;;;;;22.87;55.40;101327.72;5053258;28;20513;-70
2022/07/26 05:32:54;;;;;;;12.18;5.75;;;;;;;22.88;55.24;101326.69;5052820;28;20045;-71
2022/07/26 05:35:21;;;;;;;14.93;6.90;;;;;;;22.90;55.44;101324.63;5052920;28;20492;-71
2022/07/26 05:37:48;;;;;;;13.73;6.72;;;;;;;22.90;55.34;101325.50;5053074;28;20510;-71
2022/07/26 05:40:14;;;;;;;14.63;6.63;;;;;;;22.88;55.46;101321.22;5053007;28;20234;-70
2022/07/26 05:42:50;;;;;;;12.02;5.70;;;;;;;22.88;55.64;101330.28;5051699;28;20049;-70
2022/07/26 05:45:17;;;;;;;12.90;6.95;;;;;;;22.88;55.26;101338.50;5053023;28;20398;-70
2022/07/26 05:47:43;;;;;;;13.63;6.85;;;;;;;22.89;55.33;101331.16;5052712;28;20041;-71
2022/07/26 05:50:10;;;;;;;19.67;7.53;;;;;;;22.90;55.32;101336.44;5053085;28;20037;-70
2022/07/26 05:52:36;;;;;;;18.15;6.78;;;;;;;22.91;55.41;101342.78;5052613;28;20043;-70
2022/07/26 05:55:03;;;;;;;11.23;5.97;;;;;;;22.89;55.45;101340.22;5052704;28;20057;-70
2022/07/26 05:57:30;;;;;;;14.07;6.00;;;;;;;22.90;55.33;101344.66;5052627;28;20041;-70
2022/07/26 05:59:56;;;;;;;14.85;5.93;;;;;;;22.89;55.41;101350.31;5052488;28;20048;-69
2022/07/26 06:02:23;;;;;;;10.57;5.53;;;;;;;22.89;55.71;101353.91;5052529;28;20127;-70
2022/07/26 06:04:49;;;;;;;13.73;5.60;;;;;;;22.91;55.63;101353.72;5052183;28;20415;-71
2022/07/26 06:07:16;;;;;;;11.90;5.85;;;;;;;22.95;55.60;101355.94;5052452;28;20051;-71
2022/07/26 06:09:43;;;;;;;17.55;6.28;;;;;;;23.01;55.50;101357.13;5052514;28;20041;-71
2022/07/26 06:12:09;;;;;;;12.05;6.13;;;;;;;23.07;55.25;101357.28;5052054;28;20418;-72
2022/07/26 06:14:37;;;;;;;12.80;4.95;;;;;;;23.13;55.66;101362.06;5052232;28;20047;-72
2022/07/26 06:17:04;;;;;;;11.45;5.72;;;;;;;23.18;55.33;101366.16;5051938;28;20059;-72
2022/07/26 06:19:31;;;;;;;11.60;5.28;;;;;;;23.21;55.34;101372.13;5052000;28;20072;-71
2022/07/26 06:21:57;;;;;;;8.63;5.13;;;;;;;23.25;55.46;101368.00;5050765;28;20037;-71
2022/07/26 06:24:25;;;;;;;12.73;5.07;;;;;;;23.31;55.13;101367.28;5052136;28;20053;-70
2022/07/26 06:26:54;;;;;;;11.75;4.90;;;;;;;23.39;54.92;101375.44;5052030;28;20514;-72
2022/07/26 06:29:31;;;;;;;10.35;4.85;;;;;;;23.50;55.05;101365.09;5050959;28;20411;-71
2022/07/26 06:31:58;;;;;;;11.13;4.63;;;;;;;23.55;54.93;101363.56;5051695;28;20051;-71
2022/07/26 06:34:25;;;;;;;10.05;4.43;;;;;;;23.60;54.43;101368.50;5052127;28;20131;-72
2022/07/26 06:36:52;;;;;;;8.02;3.90;;;;;;;23.67;54.50;101362.09;5051673;28;20124;-73
2022/07/26 06:39:19;;;;;;;7.47;3.78;;;;;;;23.78;54.19;101369.06;5051349;28;20410;-72
2022/07/26 06:41:45;;;;;;;9.27;3.70;;;;;;;23.86;53.83;101370.91;5051135;28;20087;-72
2022/07/26 06:44:12;;;;;;;8.95;4.20;;;;;;;23.91;53.94;101369.34;5050451;28;20044;-71
2022/07/26 06:46:38;;;;;;;8.90;4.68;;;;;;;23.99;53.94;101371.16;5051261;28;20049;-72
2022/07/26 06:49:05;;;;;;;10.80;5.07;;;;;;;24.09;53.94;101369.88;5051541;28;20043;-73
2022/07/26 06:51:32;;;;;;;13.07;4.32;;;;;;;24.21;53.50;101373.03;5050317;28;20133;-71
2022/07/26 06:54:04;;;;;;;7.32;3.88;;;;;;;24.34;53.30;101369.69;5050863;28;20479;-72
2022/07/26 06:56:31;;;;;;;10.32;5.18;;;;;;;24.45;52.99;101374.72;5051413;28;20503;-71
2022/07/26 06:58:58;;;;;;;7.25;4.38;;;;;;;24.56;52.84;101379.78;5051401;28;20047;-72
2022/07/26 07:01:24;;;;;;;9.80;4.25;;;;;;;24.70;52.57;101372.59;5051357;28;20072;-71
2022/07/26 07:04:15;;;;;;;8.98;4.70;;;;;;;24.82;52.27;101379.31;5051428;28;20045;-73
2022/07/26 07:06:44;;;;;;;8.45;4.53;;;;;;;24.87;52.00;101385.09;5051054;28;20140;-71
2022/07/26 07:09:11;;;;;;;9.40;4.68;;;;;;;24.90;51.68;101378.38;5050622;28;20487;-71
2022/07/26 07:11:38;;;;;;;8.15;3.83;;;;;;;24.88;51.38;101388.69;5051289;28;20036;-72
2022/07/26 07:14:06;;;;;;;10.40;3.95;;;;;;;24.88;51.22;101386.81;5051482;28;20502;-72
2022/07/26 07:16:33;;;;;;;6.13;3.58;;;;;;;24.90;51.11;101397.59;5051278;28;20037;-72
2022/07/26 07:18:59;;;;;;;7.22;3.78;;;;;;;24.90;51.06;101394.88;5051203;28;20045;-71
2022/07/26 07:21:26;;;;;;;6.10;4.18;;;;;;;24.90;50.72;101395.72;5051174;28;20049;-72
2022/07/26 07:23:53;;;;;;;7.15;4.20;;;;;;;24.89;50.46;101385.75;5051130;28;20042;-72
2022/07/26 07:26:21;;;;;;;8.48;4.68;;;;;;;24.88;50.38;101395.06;5051181;28;20068;-71
2022/07/26 07:28:50;;;;;;;8.52;4.75;;;;;;;24.92;50.36;101401.03;5050749;28;20048;-71
2022/07/26 07:31:19;;;;;;;11.00;5.85;;;;;;;24.94;50.18;101405.28;5051255;28;20041;-72
2022/07/26 07:33:57;;;;;;;8.38;6.70;;;;;;;24.93;50.38;101405.47;5051062;28;20098;-71
2022/07/26 07:36:23;;;;;;;9.60;6.45;;;;;;;24.90;50.05;101405.84;5051421;28;20229;-72
2022/07/26 07:38:50;;;;;;;11.50;6.53;;;;;;;24.87;50.24;101403.47;5051021;28;20049;-70
2022/07/26 07:41:17;;;;;;;7.65;5.00;;;;;;;24.87;50.22;101398.84;5050651;28;20406;-69
2022/07/26 07:43:49;;;;;;;8.75;5.30;;;;;;;24.85;49.77;101398.19;5055864;28;20051;-69
2022/07/26 07:46:15;;;;;;;6.85;5.05;;;;;;;24.88;49.96;101399.69;5050327;28;20063;-69
2022/07/26 07:48:42;;;;;;;5.93;4.82;;;;;;;24.93;49.97;101403.59;5050878;28;20120;-69
2022/07/26 07:51:13;;;;;;;10.57;4.78;;;;;;;24.98;49.67;101403.91;5050395;28;20094;-68
2022/07/26 07:53:42;;;;;;;7.25;4.68;;;;;;;25.05;49.88;101403.13;5050667;28;20040;-69
2022/07/26 07:56:22;;;;;;;7.03;4.47;;;;;;;25.10;49.66;101400.66;5049534;28;20124;-69
2022/07/26 07:58:49;;;;;;;7.07;4.03;;;;;;;25.10;49.42;101401.53;5048727;28;20037;-68
2022/07/26 08:01:18;;;;;;;8.85;4.07;;;;;;;25.13;49.37;101398.38;5050414;28;20395;-69
2022/07/26 08:03:44;;;;;;;8.10;4.05;;;;;;;25.16;49.23;101403.50;5050234;28;20053;-69
2022/07/26 08:06:16;;;;;;;7.82;4.15;;;;;;;25.19;49.24;101403.13;5049291;28;20115;-69
2022/07/26 08:08:43;;;;;;;9.57;4.40;;;;;;;25.30;49.01;101412.81;5050928;28;20120;-69
2022/07/26 08:11:09;;;;;;;8.43;3.90;;;;;;;25.45;48.94;101410.88;5049740;28;20033;-69
2022/07/26 08:13:37;;;;;;;8.70;3.55;;;;;;;25.61;48.86;101407.06;5050770;28;20037;-68
2022/07/26 08:16:04;;;;;;;4.63;3.05;;;;;;;25.72;48.73;101417.59;5050656;28;20047;-69
2022/07/26 08:18:34;;;;;;;7.53;2.28;;;;;;;25.76;48.44;101432.66;5050542;28;20033;-69
2022/07/26 08:21:07;;;;;;;5.90;2.03;;;;;;;25.73;48.07;101438.56;5050199;28;20469;-70
2022/07/26 08:23:38;;;;;;;3.63;1.55;;;;;;;25.64;47.97;101445.19;5050283;28;20055;-71
2022/07/26 08:26:05;;;;;;;2.47;0.90;;;;;;;25.52;47.91;101442.06;5050108;28;20053;-68
2022/07/26 08:28:33;;;;;;;2.70;1.20;;;;;;;25.37;47.91;101454.16;5049924;28;20048;-69
2022/07/26 08:31:19;;;;;;;1.40;0.82;;;;;;;25.22;48.53;101452.22;5050194;28;20510;-67
2022/07/26 08:33:50;;;;;;;2.47;1.45;;;;;;;25.08;48.40;101466.81;5050352;28;20037;-70
2022/07/26 08:36:17;;;;;;;3.45;1.15;;;;;;;24.97;48.52;101465.41;5050072;28;20057;-69
2022/07/26 08:38:44;;;;;;;5.10;1.17;;;;;;;24.90;48.85;101467.16;5050586;28;20044;-69
2022/07/26 08:41:15;;;;;;;3.05;1.17;;;;;;;24.81;48.87;101479.28;5053201;28;20509;-69
2022/07/26 08:43:46;;;;;;;2.38;1.20;;;;;;;24.71;49.24;101481.44;5053759;28;20045;-68
2022/07/26 08:46:23;;;;;;;2.80;1.35;;;;;;;24.61;49.26;101484.44;5053809;28;20052;-69
2022/07/26 08:48:56;;;;;;;3.70;1.00;;;;;;;24.53;49.20;101481.75;5053467;28;20041;-69
2022/07/26 08:51:24;;;;;;;1.98;0.77;;;;;;;24.47;49.58;101484.34;5053785;28;20102;-69
2022/07/26 08:53:58;;;;;;;2.05;0.90;;;;;;;24.45;49.83;101492.78;5053554;28;20116;-70
2022/07/26 08:56:33;;;;;;;1.83;0.70;;;;;;;24.46;49.89;101475.28;5043913;28;20041;-69
2022/07/26 08:59:19;;;;;;;1.23;0.57;;;;;;;24.49;50.20;101485.88;5053403;28;20045;-70
2022/07/26 09:01:52;;;;;;;1.27;0.80;;;;;;;24.59;49.82;101491.16;5053331;28;20116;-70
2022/07/26 09:04:22;;;;;;;2.08;0.85;;;;;;;24.68;49.80;101490.91;5053734;28;20480;-70
2022/07/26 09:07:07;;;;;;;2.35;0.88;;;;;;;24.79;49.89;101497.84;5053449;28;20095;-69
2022/07/26 09:09:54;;;;;;;4.00;0.90;;;;;;;24.98;49.84;101496.47;5053016;28;20529;-70
2022/07/26 09:12:22;;;;;;;1.75;1.13;;;;;;;25.19;49.58;101501.22;5052917;28;20463;-68
2022/07/26 09:14:49;;;;;;;2.17;0.90;;;;;;;25.36;49.33;101507.44;5053156;28;20060;-68
2022/07/26 09:17:19;;;;;;;1.98;0.60;;;;;;;25.47;48.81;101509.69;5053344;28;20055;-69
2022/07/26 09:20:11;;;;;;;2.70;0.60;;;;;;;25.55;48.57;101515.09;5052576;28;20423;-69
2022/07/26 09:22:59;;;;;;;2.03;0.90;;;;;;;25.69;48.67;101507.91;5053210;28;20051;-69
2022/07/26 09:25:30;;;;;;;1.27;0.70;;;;;;;25.82;48.38;101513.59;5052991;28;20045;-67
2022/07/26 09:27:58;;;;;;;2.55;1.15;;;;;;;25.89;48.31;101509.00;5053106;28;20041;-69
2022/07/26 09:30:27;;;;;;;2.45;0.90;;;;;;;25.93;48.06;101515.84;5052916;28;20479;-67
2022/07/26 09:33:02;;;;;;;2.95;0.90;;;;;;;26.00;47.80;101510.41;5052890;28;20518;-65
2022/07/26 09:35:31;;;;;;;2.83;0.88;;;;;;;26.08;47.81;101524.09;5052673;28;20041;-66
2022/07/26 09:38:17;;;;;;;3.60;0.90;;;;;;;26.16;47.58;101522.06;5053458;28;20044;-66
2022/07/26 09:40:44;;;;;;;5.20;1.30;;;;;;;26.20;47.51;101534.38;5051623;28;20464;-66
2022/07/26 09:43:18;;;;;;;3.83;1.02;;;;;;;26.24;47.35;101532.94;5052450;28;20052;-66
2022/07/26 09:46:03;;;;;;;4.50;1.10;;;;;;;26.23;47.08;101531.25;5052625;28;20047;-66
2022/07/26 09:48:30;;;;;;;4.05;1.13;;;;;;;26.26;47.23;101538.25;5052741;28;20491;-67
2022/07/26 09:51:37;;;;;;;4.57;1.27;;;;;;;26.24;46.79;101534.84;5052054;28;20052;-67
2022/07/26 09:54:06;;;;;;;3.03;1.13;;;;;;;26.20;46.42;101539.03;5053131;28;20049;-68
2022/07/26 09:56:51;;;;;;;2.03;1.60;;;;;;;26.18;46.49;101538.38;5051383;28;20549;-68
2022/07/26 09:59:21;;;;;;;4.28;1.40;;;;;;;26.20;46.61;101539.03;5051864;28;20474;-66
2022/07/26 10:01:50;;;;;;;2.58;0.90;;;;;;;26.18;46.41;101543.91;5052558;28;20088;-68
2022/07/26 10:04:18;;;;;;;1.75;0.70;;;;;;;26.25;46.41;101544.81;5052482;28;20115;-68
2022/07/26 10:06:45;;;;;;;2.72;0.80;;;;;;;26.34;46.21;101551.09;5052392;28;20557;-68
2022/07/26 10:09:13;;;;;;;3.35;0.85;;;;;;;26.37;46.24;101553.44;5051017;28;20582;-69
2022/07/26 10:11:58;;;;;;;1.90;0.63;;;;;;;26.34;46.05;101551.94;5051983;28;20041;-69
2022/07/26 10:14:40;;;;;;;2.47;0.80;;;;;;;26.32;45.53;101556.75;5052163;28;20102;-68
2022/07/26 10:17:27;;;;;;;1.48;0.60;;;;;;;26.31;45.69;101551.44;5052271;28;20045;-68
2022/07/26 10:20:04;;;;;;;2.38;0.80;;;;;;;26.31;45.43;101549.53;5051314;28;20041;-68
2022/07/26 10:22:49;;;;;;;2.67;1.30;;;;;;;26.31;45.48;101556.97;5050507;28;20492;-69
2022/07/26 10:25:15;;;;;;;2.95;0.85;;;;;;;26.29;45.41;101552.50;5052284;28;20063;-68
2022/07/26 10:27:54;;;;;;;3.65;0.65;;;;;;;26.27;45.31;101560.09;5050523;28;20051;-69
2022/07/26 10:30:26;;;;;;;1.83;0.80;;;;;;;26.27;45.45;101556.50;5051928;28;20037;-69
2022/07/26 10:33:01;;;;;;;4.35;1.35;;;;;;;26.38;45.56;101557.91;5052329;28;20178;-68
2022/07/26 10:35:37;;;;;;;1.10;0.70;;;;;;;26.45;45.23;101561.59;5052736;28;20037;-69
2022/07/26 10:38:09;;;;;;;3.03;1.10;;;;;;;26.51;45.26;101553.41;5052848;28;20394;-69
2022/07/26 10:40:38;;;;;;;3.22;1.13;;;;;;;26.59;45.21;101560.69;5051688;28;20052;-68
2022/07/26 10:43:13;;;;;;;2.50;0.82;;;;;;;26.71;45.28;101549.97;5051679;28;20078;-68
2022/07/26 10:46:14;;;;;;;2.97;0.75;;;;;;;26.82;45.10;101563.25;5051798;28;20029;-68
2022/07/26 10:49:02;;;;;;;1.60;1.00;;;;;;;26.86;44.85;101561.81;5051639;28;20112;-71
2022/07/26 10:51:40;;;;;;;4.22;1.10;;;;;;;26.91;44.41;101557.41;5050863;28;20561;-69
2022/07/26 10:54:09;;;;;;;2.03;0.80;;;;;;;27.00;44.48;101565.56;5048927;28;20120;-68
2022/07/26 10:56:37;;;;;;;2.60;1.05;;;;;;;27.11;44.37;101563.13;5051603;28;20140;-68
2022/07/26 10:59:05;;;;;;;2.97;0.98;;;;;;;27.32;44.21;101561.34;5050716;28;20037;-69
2022/07/26 11:01:36;;;;;;;2.92;1.02;;;;;;;27.51;43.65;101560.66;5050802;28;20047;-67
2022/07/26 11:04:06;;;;;;;2.55;0.77;;;;;;;27.70;43.53;101565.47;5049618;28;20052;-68
2022/07/26 11:06:33;;;;;;;3.10;0.70;;;;;;;27.82;43.24;101563.81;5051135;28;20056;-68
2022/07/26 11:09:09;;;;;;;1.23;0.57;;;;;;;27.90;43.00;101556.44;5051322;28;20056;-68
2022/07/26 11:11:35;;;;;;;1.95;0.65;;;;;;;27.91;42.66;101564.50;5050932;28;20045;-68
2022/07/26 11:14:14;;;;;;;1.33;0.60;;;;;;;27.85;42.18;101571.69;5050877;28;20045;-68
2022/07/26 11:16:49;;;;;;;1.83;0.68;;;;;;;27.82;42.12;101568.50;5050910;28;20565;-67
2022/07/26 11:19:23;;;;;;;1.80;0.80;;;;;;;27.82;41.82;101566.59;5050989;28;20045;-68
2022/07/26 11:21:58;;;;;;;2.67;0.90;;;;;;;27.79;42.05;101575.28;5050683;28;20069;-67
2022/07/26 11:24:25;;;;;;;;;;;;;;;27.71;42.10;101575.44;5050351;28;20049;-69
2022/07/26 11:26:53;;;;;;;1.33;0.52;;;;;;;27.61;42.03;101580.50;5049564;28;19944;-68
2022/07/26 11:29:27;;;;;;;1.85;0.63;;;;;;;27.45;41.98;101583.50;5050625;28;20049;-68
2022/07/26 11:32:23;;;;;;;4.15;0.90;;;;;;;27.29;41.88;101592.09;5049486;28;20518;-68
2022/07/26 11:35:01;;;;;;;3.03;0.60;;;;;;;27.14;41.97;101592.19;5050942;28;20393;-69
2022/07/26 11:37:28;;;;;;;1.50;0.68;;;;;;;27.00;41.97;101595.88;5050716;28;20072;-68
2022/07/26 11:39:55;;;;;;;2.90;0.60;;;;;;;26.80;42.00;101598.44;5050863;28;20049;-67